This is the latest recevied weather packets stored in our database for station/object SV1BYK-1. If no packets are shown the sender has not sent any weather packets the latest 10 day(s).
| Time | Temp. | Humidity | Pressure | Rain* | Wind** | Luminosity | Snow |
|---|---|---|---|---|---|---|---|
| 1777481756 | 21.67° C | 31% | 1013.9 hPa | 0 mm | - | - | - |
| 1777478516 | 26.67° C | 23% | 1012.8 hPa | 0 mm | - | - | - |
| 1777477436 | 26.67° C | 23% | 1012.8 hPa | 0 mm | - | - | - |
| 1777475816 | 26.67° C | 23% | 1012.8 hPa | 0 mm | - | - | - |
| 1777472037 | 26.67° C | 23% | 1012.8 hPa | 0 mm | - | - | - |
| 1777469876 | 26.67° C | 23% | 1012.8 hPa | 0 mm | - | - | - |
| 1777468257 | 26.67° C | 23% | 1012.8 hPa | 0 mm | - | - | - |
| 1777461777 | 27.22° C | 26% | 1013.1 hPa | 0 mm | - | - | - |
| 1777456376 | 26.67° C | 22% | 1014.8 hPa | 0 mm | - | - | - |
| 1777450977 | 25.56° C | 27% | 1015.8 hPa | 0 mm | - | - | - |
| 1777449357 | 22.22° C | 36% | 1017.3 hPa | 0 mm | - | - | - |
| 1777446657 | 22.22° C | 36% | 1017.3 hPa | 0 mm | - | - | - |
| 1777445037 | 22.22° C | 36% | 1017.3 hPa | 0 mm | - | - | - |
| 1777443957 | 22.22° C | 36% | 1017.3 hPa | 0 mm | - | - | - |
| 1777439097 | 20° C | 51% | 1018.1 hPa | 0 mm | - | - | - |
| 1777436937 | 15.56° C | 60% | 1017.1 hPa | 0 mm | - | - | - |
| 1777435857 | 15.56° C | 60% | 1017.1 hPa | 0 mm | - | - | - |
| 1777433697 | 15.56° C | 60% | 1017.1 hPa | 0 mm | - | - | - |
| 1777430457 | 15.56° C | 60% | 1017.1 hPa | 0 mm | - | - | - |
| 1777428837 | 15.56° C | 60% | 1017.1 hPa | 0 mm | - | - | - |
| 1777427757 | 15.56° C | 60% | 1017.1 hPa | 0 mm | - | - | - |
| 1777427217 | 15.56° C | 60% | 1017.1 hPa | 0 mm | - | - | - |
| 1777422357 | 15.56° C | 60% | 1017.1 hPa | 0 mm | - | - | - |
| 1777415337 | 15.56° C | 60% | 1017.1 hPa | 0 mm | - | - | - |
| 1777414257 | 15.56° C | 60% | 1017.1 hPa | 0 mm | - | - | - |
* Rain latest hour (hover to see other rain measurements)
** Current wind speed in m/s (hover to see current wind gust speed)